sensor_id;sensor_type;location;lat;lon;timestamp;pressure;altitude;pressure_sealevel;temperature;humidity
73316;BME280;61545;53.726;-0.444;2023-08-12T00:01:24;1009.8;;;18.1;100.0
73316;BME280;61545;53.726;-0.444;2023-08-12T00:06:24;1009.8;;;18.0;100.0
73316;BME280;61545;53.726;-0.444;2023-08-12T00:11:24;1009.8;;;18.0;100.0
73316;BME280;61545;53.726;-0.444;2023-08-12T00:16:24;1009.8;;;17.9;100.0
73316;BME280;61545;53.726;-0.444;2023-08-12T00:21:25;1009.7;;;17.9;100.0
73316;BME280;61545;53.726;-0.444;2023-08-12T00:26:24;1009.6;;;unknown;100.0
73316;BME280;61545;53.726;-0.444;2023-08-12T00:31:24;1009.6;;;17.7;100.0
73316;BME280;61545;53.726;-0.444;2023-08-12T00:36:24;1009.6;;;17.7;100.0
73316;BME280;61545;53.726;-0.444;2023-08-12T00:41:24;1009.6;;;17.7;100.0
73316;BME280;61545;53.726;-0.444;2023-08-12T00:46:24;1009.6;;;17.6;100.0
73316;BME280;61545;53.726;-0.444;2023-08-12T00:51:24;1009.5;;;17.5;100.0
73316;BME280;61545;53.726;-0.444;2023-08-12T00:56:25;1009.4;;;17.7;100.0
73316;BME280;61545;53.726;-0.444;2023-08-12T01:01:24;1009.4;;;18.0;100.0
73316;BME280;61545;53.726;-0.444;2023-08-12T01:06:24;1009.4;;;18.0;100.0
73316;BME280;61545;53.726;-0.444;2023-08-12T01:11:27;1009.4;;;17.9;100.0
73316;BME280;61545;53.726;-0.444;2023-08-12T01:16:25;1009.3;;;18.0;100.0
73316;BME280;61545;53.726;-0.444;2023-08-12T01:21:24;1009.2;;;17.9;100.0
73316;BME280;61545;53.726;-0.444;2023-08-12T01:26:24;1009.3;;;17.7;100.0
73316;BME280;61545;53.726;-0.444;2023-08-12T01:31:27;1009.2;;;17.7;100.0
73316;BME280;61545;53.726;-0.444;2023-08-12T01:36:24;1009.2;;;17.7;100.0
73316;BME280;61545;53.726;-0.444;2023-08-12T01:41:24;1009.2;;;17.5;100.0
73316;BME280;61545;53.726;-0.444;2023-08-12T01:46:24;1009.3;;;17.5;100.0
73316;BME280;61545;53.726;-0.444;2023-08-12T01:51:24;1009.3;;;17.4;100.0
73316;BME280;61545;53.726;-0.444;2023-08-12T01:56:24;1009.3;;;17.4;100.0
73316;BME280;61545;53.726;-0.444;2023-08-12T02:01:24;1009.2;;;17.3;100.0
73316;BME280;61545;53.726;-0.444;2023-08-12T02:06:25;1009.2;;;17.4;100.0
73316;BME280;61545;53.726;-0.444;2023-08-12T02:11:24;1009.1;;;17.2;100.0
73316;BME280;61545;53.726;-0.444;2023-08-12T02:16:24;1009.1;;;17.2;100.0
73316;BME280;61545;53.726;-0.444;2023-08-12T02:21:24;1009.0;;;17.2;100.0
73316;BME280;61545;53.726;-0.444;2023-08-12T02:26:24;1008.9;;;17.1;100.0
73316;BME280;61545;53.726;-0.444;2023-08-12T02:31:24;1009.0;;;17.2;100.0
73316;BME280;61545;53.726;-0.444;2023-08-12T02:36:25;1008.9;;;17.1;100.0
73316;BME280;61545;53.726;-0.444;2023-08-12T02:41:24;1008.9;;;17.0;100.0
73316;BME280;61545;53.726;-0.444;2023-08-12T02:46:24;1008.8;;;16.9;100.0
73316;BME280;61545;53.726;-0.444;2023-08-12T02:51:24;1008.7;;;16.9;100.0
73316;BME280;61545;53.726;-0.444;2023-08-12T02:56:24;1008.7;;;16.9;100.0
73316;BME280;61545;53.726;-0.444;2023-08-12T03:01:24;1008.7;;;16.7;100.0
73316;BME280;61545;53.726;-0.444;2023-08-12T03:06:24;1008.7;;;16.5;100.0
73316;BME280;61545;53.726;-0.444;2023-08-12T03:11:24;1008.6;;;16.6;100.0
73316;BME280;61545;53.726;-0.444;2023-08-12T03:16:24;1008.6;;;16.5;100.0
73316;BME280;61545;53.726;-0.444;2023-08-12T03:21:24;1008.5;;;16.5;100.0
73316;BME280;61545;53.726;-0.444;2023-08-12T03:26:24;1008.5;;;16.4;100.0
73316;BME280;61545;53.726;-0.444;2023-08-12T03:31:24;1008.5;;;16.4;100.0
73316;BME280;61545;53.726;-0.444;2023-08-12T03:36:24;1008.5;;;16.5;100.0
73316;BME280;61545;53.726;-0.444;2023-08-12T03:41:24;1008.4;;;16.5;100.0
73316;BME280;61545;53.726;-0.444;2023-08-12T03:46:24;1008.4;;;16.5;100.0
73316;BME280;61545;53.726;-0.444;2023-08-12T03:51:24;1008.4;;;16.4;100.0
73316;BME280;61545;53.726;-0.444;2023-08-12T03:56:24;1008.3;;;16.4;100.0
73316;BME280;61545;53.726;-0.444;2023-08-12T04:01:24;1008.3;;;16.5;100.0
73316;BME280;61545;53.726;-0.444;2023-08-12T04:06:24;1008.3;;;16.5;100.0
73316;BME280;61545;53.726;-0.444;2023-08-12T04:11:24;1008.2;;;16.4;100.0
73316;BME280;61545;53.726;-0.444;2023-08-12T04:16:24;1008.3;;;16.3;100.0
73316;BME280;61545;53.726;-0.444;2023-08-12T04:21:24;1008.2;;;16.2;100.0
73316;BME280;61545;53.726;-0.444;2023-08-12T04:26:24;1008.2;;;16.2;100.0
73316;BME280;61545;53.726;-0.444;2023-08-12T04:31:24;1008.2;;;16.4;100.0
73316;BME280;61545;53.726;-0.444;2023-08-12T04:36:24;1008.1;;;16.5;100.0
73316;BME280;61545;53.726;-0.444;2023-08-12T04:41:24;1008.0;;;16.7;100.0
73316;BME280;61545;53.726;-0.444;2023-08-12T04:46:24;1008.0;;;16.8;100.0
73316;BME280;61545;53.726;-0.444;2023-08-12T04:51:24;1008.0;;;16.6;100.0
73316;BME280;61545;53.726;-0.444;2023-08-12T04:56:24;1007.9;;;16.7;100.0
73316;BME280;61545;53.726;-0.444;2023-08-12T05:01:24;1007.9;;;16.5;100.0
73316;BME280;61545;53.726;-0.444;2023-08-12T05:06:24;1007.9;;;16.9;100.0
73316;BME280;61545;53.726;-0.444;2023-08-12T05:11:24;1007.8;;;16.7;100.0
73316;BME280;61545;53.726;-0.444;2023-08-12T05:16:24;1007.9;;;16.8;100.0
73316;BME280;61545;53.726;-0.444;2023-08-12T05:21:24;1007.9;;;16.8;100.0
73316;BME280;61545;53.726;-0.444;2023-08-12T05:26:24;1007.8;;;17.0;100.0
73316;BME280;61545;53.726;-0.444;2023-08-12T05:31:24;1007.9;;;16.8;100.0
73316;BME280;61545;53.726;-0.444;2023-08-12T05:36:24;1007.8;;;16.7;100.0
73316;BME280;61545;53.726;-0.444;2023-08-12T05:41:24;1007.8;;;16.7;100.0
73316;BME280;61545;53.726;-0.444;2023-08-12T05:46:24;1007.8;;;16.9;100.0
73316;BME280;61545;53.726;-0.444;2023-08-12T05:51:24;1007.9;;;16.8;100.0
73316;BME280;61545;53.726;-0.444;2023-08-12T05:56:24;1007.9;;;17.0;100.0
73316;BME280;61545;53.726;-0.444;2023-08-12T06:01:24;1007.8;;;17.2;100.0
73316;BME280;61545;53.726;-0.444;2023-08-12T06:06:24;1007.7;;;17.5;100.0
73316;BME280;61545;53.726;-0.444;2023-08-12T06:11:24;1007.6;;;17.7;100.0
73316;BME280;61545;53.726;-0.444;2023-08-12T06:16:24;1007.5;;;18.4;100.0
73316;BME280;61545;53.726;-0.444;2023-08-12T06:21:24;1007.4;;;unknown;100.0
73316;BME280;61545;53.726;-0.444;2023-08-12T06:26:24;1007.4;;;18.9;100.0
73316;BME280;61545;53.726;-0.444;2023-08-12T06:31:24;1007.4;;;18.1;100.0
73316;BME280;61545;53.726;-0.444;2023-08-12T06:36:24;1007.5;;;17.7;100.0
73316;BME280;61545;53.726;-0.444;2023-08-12T06:41:24;1007.5;;;17.7;100.0
73316;BME280;61545;53.726;-0.444;2023-08-12T06:46:24;1007.5;;;18.0;100.0
73316;BME280;61545;53.726;-0.444;2023-08-12T06:51:24;1007.4;;;17.9;100.0
73316;BME280;61545;53.726;-0.444;2023-08-12T06:56:24;1007.4;;;18.2;100.0
73316;BME280;61545;53.726;-0.444;2023-08-12T07:01:24;1007.4;;;18.2;100.0
73316;BME280;61545;53.726;-0.444;2023-08-12T07:06:24;1007.4;;;18.9;100.0
73316;BME280;61545;53.726;-0.444;2023-08-12T07:11:24;1007.4;;;19.9;100.0
73316;BME280;61545;53.726;-0.444;2023-08-12T07:16:24;1007.3;;;20.0;100.0
73316;BME280;61545;53.726;-0.444;2023-08-12T07:21:24;1007.2;;;20.7;100.0
73316;BME280;61545;53.726;-0.444;2023-08-12T07:26:24;1007.1;;;21.3;100.0
73316;BME280;61545;53.726;-0.444;2023-08-12T07:31:24;1007.1;;;19.9;100.0
73316;BME280;61545;53.726;-0.444;2023-08-12T07:36:24;1007.1;;;19.6;100.0
73316;BME280;61545;53.726;-0.444;2023-08-12T07:41:24;1007.1;;;19.0;100.0
73316;BME280;61545;53.726;-0.444;2023-08-12T07:46:24;1007.1;;;21.4;100.0
73316;BME280;61545;53.726;-0.444;2023-08-12T07:51:24;1007.0;;;19.5;100.0
73316;BME280;61545;53.726;-0.444;2023-08-12T07:56:24;1007.0;;;19.0;100.0
73316;BME280;61545;53.726;-0.444;2023-08-12T08:01:24;1007.0;;;19.0;100.0
73316;BME280;61545;53.726;-0.444;2023-08-12T08:06:24;1007.0;;;18.7;100.0
73316;BME280;61545;53.726;-0.444;2023-08-12T08:11:24;1007.0;;;18.9;100.0
73316;BME280;61545;53.726;-0.444;2023-08-12T08:16:24;1007.0;;;19.0;100.0
73316;BME280;61545;53.726;-0.444;2023-08-12T08:21:25;1006.9;;;19.2;100.0
73316;BME280;61545;53.726;-0.444;2023-08-12T08:26:24;1006.9;;;19.5;100.0
73316;BME280;61545;53.726;-0.444;2023-08-12T08:31:24;1006.9;;;19.0;100.0
73316;BME280;61545;53.726;-0.444;2023-08-12T08:36:24;1006.9;;;18.6;100.0
73316;BME280;61545;53.726;-0.444;2023-08-12T08:41:24;1007.0;;;18.5;100.0
73316;BME280;61545;53.726;-0.444;2023-08-12T08:46:24;1007.0;;;18.5;100.0
73316;BME280;61545;53.726;-0.444;2023-08-12T08:51:24;1007.0;;;18.8;100.0
73316;BME280;61545;53.726;-0.444;2023-08-12T08:56:24;1007.0;;;18.7;100.0
73316;BME280;61545;53.726;-0.444;2023-08-12T09:01:26;1007.0;;;18.4;100.0
73316;BME280;61545;53.726;-0.444;2023-08-12T09:06:25;1007.0;;;18.5;100.0
73316;BME280;61545;53.726;-0.444;2023-08-12T09:11:24;1007.0;;;18.6;100.0
73316;BME280;61545;53.726;-0.444;2023-08-12T09:16:24;1007.0;;;18.9;100.0
73316;BME280;61545;53.726;-0.444;2023-08-12T09:21:24;1006.8;;;19.0;100.0
73316;BME280;61545;53.726;-0.444;2023-08-12T09:26:24;1006.8;;;19.0;100.0
73316;BME280;61545;53.726;-0.444;2023-08-12T09:31:26;1006.7;;;18.9;100.0
73316;BME280;61545;53.726;-0.444;2023-08-12T09:36:27;1006.8;;;18.9;100.0
73316;BME280;61545;53.726;-0.444;2023-08-12T09:41:25;1006.8;;;19.2;100.0
73316;BME280;61545;53.726;-0.444;2023-08-12T09:46:24;1006.6;;;19.2;100.0
73316;BME280;61545;53.726;-0.444;2023-08-12T09:51:24;1006.6;;;19.0;100.0
73316;BME280;61545;53.726;-0.444;2023-08-12T09:56:24;1006.7;;;19.2;100.0
73316;BME280;61545;53.726;-0.444;2023-08-12T10:01:24;1006.8;;;19.0;100.0
73316;BME280;61545;53.726;-0.444;2023-08-12T10:06:24;1006.8;;;19.0;100.0
73316;BME280;61545;53.726;-0.444;2023-08-12T10:11:24;1006.7;;;18.9;100.0
73316;BME280;61545;53.726;-0.444;2023-08-12T10:16:24;1006.7;;;19.0;100.0
73316;BME280;61545;53.726;-0.444;2023-08-12T10:21:24;1006.7;;;19.4;100.0
73316;BME280;61545;53.726;-0.444;2023-08-12T10:26:24;1006.6;;;19.8;100.0
73316;BME280;61545;53.726;-0.444;2023-08-12T10:31:25;1006.6;;;20.0;100.0
73316;BME280;61545;53.726;-0.444;2023-08-12T10:36:26;1006.5;;;20.5;100.0
73316;BME280;61545;53.726;-0.444;2023-08-12T10:41:24;1006.4;;;20.4;100.0
73316;BME280;61545;53.726;-0.444;2023-08-12T10:46:29;1006.4;;;20.5;100.0
73316;BME280;61545;53.726;-0.444;2023-08-12T10:51:41;1006.4;;;21.5;100.0
73316;BME280;61545;53.726;-0.444;2023-08-12T10:56:24;1006.3;;;21.2;100.0
73316;BME280;61545;53.726;-0.444;2023-08-12T11:01:24;1006.2;;;20.5;100.0
73316;BME280;61545;53.726;-0.444;2023-08-12T11:06:26;1006.2;;;20.7;100.0
73316;BME280;61545;53.726;-0.444;2023-08-12T11:11:26;1006.1;;;20.2;100.0
73316;BME280;61545;53.726;-0.444;2023-08-12T11:16:31;1006.1;;;20.4;100.0
73316;BME280;61545;53.726;-0.444;2023-08-12T11:21:24;1006.0;;;21.5;100.0
73316;BME280;61545;53.726;-0.444;2023-08-12T11:26:24;1005.9;;;unknown;100.0
73316;BME280;61545;53.726;-0.444;2023-08-12T11:31:24;1006.0;;;21.5;100.0
73316;BME280;61545;53.726;-0.444;2023-08-12T11:36:24;1006.1;;;21.0;100.0
73316;BME280;61545;53.726;-0.444;2023-08-12T11:41:24;1006.1;;;21.0;100.0
73316;BME280;61545;53.726;-0.444;2023-08-12T11:46:24;1006.0;;;21.4;100.0
73316;BME280;61545;53.726;-0.444;2023-08-12T11:51:24;1006.0;;;21.1;100.0
73316;BME280;61545;53.726;-0.444;2023-08-12T11:56:24;1006.1;;;20.8;100.0
73316;BME280;61545;53.726;-0.444;2023-08-12T12:01:24;1006.0;;;unknown;100.0
73316;BME280;61545;53.726;-0.444;2023-08-12T12:06:29;1006.0;;;20.9;100.0
73316;BME280;61545;53.726;-0.444;2023-08-12T12:11:24;1006.0;;;21.0;100.0
73316;BME280;61545;53.726;-0.444;2023-08-12T12:16:24;1006.0;;;20.9;100.0
73316;BME280;61545;53.726;-0.444;2023-08-12T12:21:24;1005.9;;;unknown;100.0
73316;BME280;61545;53.726;-0.444;2023-08-12T12:26:24;1005.8;;;21.9;100.0
73316;BME280;61545;53.726;-0.444;2023-08-12T12:31:24;1005.8;;;21.5;100.0
73316;BME280;61545;53.726;-0.444;2023-08-12T12:36:24;1005.9;;;20.8;100.0
73316;BME280;61545;53.726;-0.444;2023-08-12T12:41:24;1005.8;;;20.6;100.0
73316;BME280;61545;53.726;-0.444;2023-08-12T12:46:24;1005.9;;;20.5;100.0
73316;BME280;61545;53.726;-0.444;2023-08-12T12:51:24;1005.9;;;unknown;100.0
73316;BME280;61545;53.726;-0.444;2023-08-12T12:56:24;1005.9;;;21.2;100.0
73316;BME280;61545;53.726;-0.444;2023-08-12T13:01:24;1005.7;;;21.6;100.0
73316;BME280;61545;53.726;-0.444;2023-08-12T13:06:25;1005.7;;;21.2;100.0
73316;BME280;61545;53.726;-0.444;2023-08-12T13:11:24;1005.6;;;21.4;100.0
73316;BME280;61545;53.726;-0.444;2023-08-12T13:16:24;1005.6;;;21.2;100.0
73316;BME280;61545;53.726;-0.444;2023-08-12T13:21:25;1005.7;;;21.0;100.0
73316;BME280;61545;53.726;-0.444;2023-08-12T13:26:24;1005.6;;;20.8;100.0
73316;BME280;61545;53.726;-0.444;2023-08-12T13:31:24;1005.6;;;20.7;100.0
73316;BME280;61545;53.726;-0.444;2023-08-12T13:36:24;1005.7;;;unknown;100.0
73316;BME280;61545;53.726;-0.444;2023-08-12T13:41:24;1005.7;;;20.1;100.0
73316;BME280;61545;53.726;-0.444;2023-08-12T13:46:24;1005.9;;;19.9;100.0
73316;BME280;61545;53.726;-0.444;2023-08-12T13:51:24;1005.9;;;19.9;100.0
73316;BME280;61545;53.726;-0.444;2023-08-12T13:56:24;1005.8;;;20.0;100.0
73316;BME280;61545;53.726;-0.444;2023-08-12T14:01:24;1005.8;;;unknown;100.0
73316;BME280;61545;53.726;-0.444;2023-08-12T14:06:24;1005.7;;;20.1;100.0
73316;BME280;61545;53.726;-0.444;2023-08-12T14:11:24;1005.8;;;20.2;100.0
73316;BME280;61545;53.726;-0.444;2023-08-12T14:16:24;1006.0;;;19.9;100.0
73316;BME280;61545;53.726;-0.444;2023-08-12T14:21:24;1006.1;;;19.4;100.0
73316;BME280;61545;53.726;-0.444;2023-08-12T14:26:24;1006.1;;;19.6;100.0
73316;BME280;61545;53.726;-0.444;2023-08-12T14:31:24;1006.0;;;19.7;100.0
73316;BME280;61545;53.726;-0.444;2023-08-12T14:36:24;1005.9;;;20.1;100.0
73316;BME280;61545;53.726;-0.444;2023-08-12T14:41:24;1005.9;;;20.5;100.0
73316;BME280;61545;53.726;-0.444;2023-08-12T14:46:24;1005.8;;;20.4;100.0
73316;BME280;61545;53.726;-0.444;2023-08-12T14:51:24;1005.8;;;20.5;100.0
73316;BME280;61545;53.726;-0.444;2023-08-12T14:56:24;1005.7;;;20.7;100.0
73316;BME280;61545;53.726;-0.444;2023-08-12T15:01:24;1005.7;;;20.5;100.0
73316;BME280;61545;53.726;-0.444;2023-08-12T15:06:24;1005.7;;;20.4;100.0
73316;BME280;61545;53.726;-0.444;2023-08-12T15:11:24;1005.7;;;20.4;100.0
73316;BME280;61545;53.726;-0.444;2023-08-12T15:16:24;1005.5;;;20.4;100.0
73316;BME280;61545;53.726;-0.444;2023-08-12T15:21:24;1005.4;;;20.5;100.0
73316;BME280;61545;53.726;-0.444;2023-08-12T15:26:24;1005.4;;;20.6;100.0
73316;BME280;61545;53.726;-0.444;2023-08-12T15:31:24;1005.4;;;20.7;100.0
73316;BME280;61545;53.726;-0.444;2023-08-12T15:36:24;1005.3;;;20.7;100.0
73316;BME280;61545;53.726;-0.444;2023-08-12T15:41:24;1005.1;;;21.0;100.0
73316;BME280;61545;53.726;-0.444;2023-08-12T15:46:24;1005.2;;;20.5;100.0
73316;BME280;61545;53.726;-0.444;2023-08-12T15:51:24;1005.2;;;20.5;100.0
73316;BME280;61545;53.726;-0.444;2023-08-12T15:56:24;1005.1;;;20.5;100.0
73316;BME280;61545;53.726;-0.444;2023-08-12T16:01:24;1005.2;;;20.5;100.0
73316;BME280;61545;53.726;-0.444;2023-08-12T16:06:24;1005.1;;;20.5;100.0
73316;BME280;61545;53.726;-0.444;2023-08-12T16:11:24;1005.2;;;20.4;100.0
73316;BME280;61545;53.726;-0.444;2023-08-12T16:16:24;1005.2;;;20.2;100.0
73316;BME280;61545;53.726;-0.444;2023-08-12T16:21:24;1005.1;;;20.3;100.0
73316;BME280;61545;53.726;-0.444;2023-08-12T16:26:24;1005.1;;;20.4;100.0
73316;BME280;61545;53.726;-0.444;2023-08-12T16:31:25;1005.1;;;20.3;100.0
73316;BME280;61545;53.726;-0.444;2023-08-12T16:36:24;1005.1;;;20.3;100.0
73316;BME280;61545;53.726;-0.444;2023-08-12T16:41:24;1005.1;;;20.2;100.0
73316;BME280;61545;53.726;-0.444;2023-08-12T16:46:24;1005.2;;;20.2;100.0
73316;BME280;61545;53.726;-0.444;2023-08-12T16:51:26;1005.2;;;20.0;100.0
73316;BME280;61545;53.726;-0.444;2023-08-12T16:56:24;1005.2;;;19.9;100.0
73316;BME280;61545;53.726;-0.444;2023-08-12T17:01:24;1005.3;;;19.9;100.0
73316;BME280;61545;53.726;-0.444;2023-08-12T17:06:24;1005.2;;;20.2;100.0
73316;BME280;61545;53.726;-0.444;2023-08-12T17:11:24;1005.1;;;20.2;100.0
73316;BME280;61545;53.726;-0.444;2023-08-12T17:16:24;1005.2;;;20.6;100.0
73316;BME280;61545;53.726;-0.444;2023-08-12T17:21:24;1005.2;;;20.6;100.0
73316;BME280;61545;53.726;-0.444;2023-08-12T17:26:24;1005.2;;;20.8;100.0
73316;BME280;61545;53.726;-0.444;2023-08-12T17:31:24;1005.2;;;20.4;100.0
73316;BME280;61545;53.726;-0.444;2023-08-12T17:36:24;1005.1;;;20.5;100.0
73316;BME280;61545;53.726;-0.444;2023-08-12T17:41:24;1005.2;;;unknown;100.0
73316;BME280;61545;53.726;-0.444;2023-08-12T17:46:24;1005.3;;;20.0;100.0
73316;BME280;61545;53.726;-0.444;2023-08-12T17:51:24;1005.4;;;19.9;100.0
73316;BME280;61545;53.726;-0.444;2023-08-12T17:56:24;1005.4;;;19.8;100.0
73316;BME280;61545;53.726;-0.444;2023-08-12T18:01:24;1005.4;;;19.8;100.0
73316;BME280;61545;53.726;-0.444;2023-08-12T18:06:24;1005.4;;;19.7;100.0
73316;BME280;61545;53.726;-0.444;2023-08-12T18:11:24;1005.5;;;19.7;100.0
73316;BME280;61545;53.726;-0.444;2023-08-12T18:16:24;1005.4;;;19.5;100.0
73316;BME280;61545;53.726;-0.444;2023-08-12T18:21:24;1005.4;;;19.4;100.0
73316;BME280;61545;53.726;-0.444;2023-08-12T18:26:24;1005.4;;;19.4;100.0
73316;BME280;61545;53.726;-0.444;2023-08-12T18:31:24;1005.6;;;19.4;100.0
73316;BME280;61545;53.726;-0.444;2023-08-12T18:36:24;1005.6;;;19.4;100.0
73316;BME280;61545;53.726;-0.444;2023-08-12T18:41:24;1005.7;;;19.3;100.0
73316;BME280;61545;53.726;-0.444;2023-08-12T18:46:24;1005.7;;;19.3;100.0
73316;BME280;61545;53.726;-0.444;2023-08-12T18:51:24;1005.7;;;19.2;100.0
73316;BME280;61545;53.726;-0.444;2023-08-12T18:56:24;1005.7;;;19.2;100.0
73316;BME280;61545;53.726;-0.444;2023-08-12T19:01:24;1005.8;;;19.1;100.0
73316;BME280;61545;53.726;-0.444;2023-08-12T19:06:24;1005.7;;;19.0;100.0
73316;BME280;61545;53.726;-0.444;2023-08-12T19:11:24;1005.8;;;19.0;100.0
73316;BME280;61545;53.726;-0.444;2023-08-12T19:16:24;1005.8;;;19.0;100.0
73316;BME280;61545;53.726;-0.444;2023-08-12T19:21:24;1005.9;;;18.9;100.0
73316;BME280;61545;53.726;-0.444;2023-08-12T19:26:25;1005.9;;;18.9;100.0
73316;BME280;61545;53.726;-0.444;2023-08-12T19:31:25;1006.0;;;18.9;100.0
73316;BME280;61545;53.726;-0.444;2023-08-12T19:36:24;1006.1;;;18.9;100.0
73316;BME280;61545;53.726;-0.444;2023-08-12T19:41:24;1006.1;;;18.7;100.0
73316;BME280;61545;53.726;-0.444;2023-08-12T19:46:24;1006.3;;;18.7;100.0
73316;BME280;61545;53.726;-0.444;2023-08-12T19:51:25;1006.3;;;18.7;100.0
73316;BME280;61545;53.726;-0.444;2023-08-12T19:56:24;1006.3;;;18.7;100.0
73316;BME280;61545;53.726;-0.444;2023-08-12T20:01:24;1006.4;;;18.4;100.0
73316;BME280;61545;53.726;-0.444;2023-08-12T20:06:24;1006.5;;;18.4;100.0
73316;BME280;61545;53.726;-0.444;2023-08-12T20:11:24;1006.5;;;18.4;100.0
73316;BME280;61545;53.726;-0.444;2023-08-12T20:16:24;1006.5;;;18.4;100.0
73316;BME280;61545;53.726;-0.444;2023-08-12T20:21:24;1006.5;;;18.4;100.0
73316;BME280;61545;53.726;-0.444;2023-08-12T20:26:25;1006.6;;;18.2;100.0
73316;BME280;61545;53.726;-0.444;2023-08-12T20:31:24;1006.6;;;18.2;100.0
73316;BME280;61545;53.726;-0.444;2023-08-12T20:36:24;1006.6;;;18.3;100.0
73316;BME280;61545;53.726;-0.444;2023-08-12T20:41:24;1006.6;;;18.4;100.0
73316;BME280;61545;53.726;-0.444;2023-08-12T20:46:24;1006.6;;;18.4;100.0
73316;BME280;61545;53.726;-0.444;2023-08-12T20:51:24;1006.6;;;18.3;100.0
73316;BME280;61545;53.726;-0.444;2023-08-12T20:56:24;1006.6;;;18.3;100.0
73316;BME280;61545;53.726;-0.444;2023-08-12T21:01:25;1006.7;;;unknown;100.0
73316;BME280;61545;53.726;-0.444;2023-08-12T21:06:24;1006.7;;;unknown;100.0
73316;BME280;61545;53.726;-0.444;2023-08-12T21:11:24;1006.7;;;18.4;100.0
73316;BME280;61545;53.726;-0.444;2023-08-12T21:16:24;1006.7;;;18.3;100.0
73316;BME280;61545;53.726;-0.444;2023-08-12T21:21:24;1006.7;;;18.4;100.0
73316;BME280;61545;53.726;-0.444;2023-08-12T21:26:24;1006.7;;;18.3;100.0
73316;BME280;61545;53.726;-0.444;2023-08-12T21:31:24;1006.8;;;18.2;100.0
73316;BME280;61545;53.726;-0.444;2023-08-12T21:36:24;1006.8;;;18.4;100.0
73316;BME280;61545;53.726;-0.444;2023-08-12T21:41:24;1006.8;;;18.3;100.0
73316;BME280;61545;53.726;-0.444;2023-08-12T21:46:24;1006.8;;;18.3;100.0
73316;BME280;61545;53.726;-0.444;2023-08-12T21:51:25;1006.8;;;18.2;100.0
73316;BME280;61545;53.726;-0.444;2023-08-12T21:56:24;1006.8;;;18.2;100.0
73316;BME280;61545;53.726;-0.444;2023-08-12T22:01:24;1006.8;;;18.2;100.0
73316;BME280;61545;53.726;-0.444;2023-08-12T22:06:25;1006.8;;;18.1;100.0
73316;BME280;61545;53.726;-0.444;2023-08-12T22:11:24;1006.8;;;18.0;100.0
73316;BME280;61545;53.726;-0.444;2023-08-12T22:16:24;1006.8;;;18.1;100.0
73316;BME280;61545;53.726;-0.444;2023-08-12T22:21:24;1006.8;;;18.1;100.0
73316;BME280;61545;53.726;-0.444;2023-08-12T22:26:24;1006.7;;;17.9;100.0
73316;BME280;61545;53.726;-0.444;2023-08-12T22:31:24;1006.8;;;17.8;100.0
73316;BME280;61545;53.726;-0.444;2023-08-12T22:36:24;1006.8;;;17.9;100.0
73316;BME280;61545;53.726;-0.444;2023-08-12T22:41:24;1006.8;;;17.9;100.0
73316;BME280;61545;53.726;-0.444;2023-08-12T22:46:25;1006.8;;;17.7;100.0
73316;BME280;61545;53.726;-0.444;2023-08-12T22:51:24;1006.8;;;17.6;100.0
73316;BME280;61545;53.726;-0.444;2023-08-12T22:56:24;1006.8;;;17.6;100.0
73316;BME280;61545;53.726;-0.444;2023-08-12T23:01:25;1006.8;;;17.5;100.0
73316;BME280;61545;53.726;-0.444;2023-08-12T23:06:24;1006.8;;;17.4;100.0
73316;BME280;61545;53.726;-0.444;2023-08-12T23:11:25;1006.8;;;17.6;100.0
73316;BME280;61545;53.726;-0.444;2023-08-12T23:16:25;1006.8;;;17.6;100.0
73316;BME280;61545;53.726;-0.444;2023-08-12T23:21:25;1006.8;;;17.6;100.0
73316;BME280;61545;53.726;-0.444;2023-08-12T23:26:24;1006.9;;;17.4;100.0
73316;BME280;61545;53.726;-0.444;2023-08-12T23:31:24;1006.9;;;17.4;100.0
73316;BME280;61545;53.726;-0.444;2023-08-12T23:36:24;1006.9;;;17.2;100.0
73316;BME280;61545;53.726;-0.444;2023-08-12T23:41:25;1006.9;;;17.4;100.0
73316;BME280;61545;53.726;-0.444;2023-08-12T23:46:24;1007.0;;;17.4;100.0
73316;BME280;61545;53.726;-0.444;2023-08-12T23:51:24;1007.0;;;17.4;100.0
73316;BME280;61545;53.726;-0.444;2023-08-12T23:56:24;1007.1;;;17.4;100.0
